sensor_id;sensor_type;location;lat;lon;timestamp;temperature;humidity
34837;DHT22;21053;50.848;4.652;2024-02-21T00:00:52;10.70;99.90
34837;DHT22;21053;50.848;4.652;2024-02-21T00:03:20;10.70;99.90
34837;DHT22;21053;50.848;4.652;2024-02-21T00:05:49;10.70;99.90
34837;DHT22;21053;50.848;4.652;2024-02-21T00:08:14;10.80;99.90
34837;DHT22;21053;50.848;4.652;2024-02-21T00:10:44;10.80;99.90
34837;DHT22;21053;50.848;4.652;2024-02-21T00:13:13;10.70;99.90
34837;DHT22;21053;50.848;4.652;2024-02-21T00:15:42;10.70;99.90
34837;DHT22;21053;50.848;4.652;2024-02-21T00:20:38;10.60;99.90
34837;DHT22;21053;50.848;4.652;2024-02-21T00:23:04;10.60;99.90
34837;DHT22;21053;50.848;4.652;2024-02-21T00:25:33;10.60;99.90
34837;DHT22;21053;50.848;4.652;2024-02-21T00:28:02;10.60;99.90
34837;DHT22;21053;50.848;4.652;2024-02-21T00:30:31;10.60;99.90
34837;DHT22;21053;50.848;4.652;2024-02-21T00:33:00;10.70;99.90
34837;DHT22;21053;50.848;4.652;2024-02-21T00:35:25;10.60;99.90
34837;DHT22;21053;50.848;4.652;2024-02-21T00:37:54;10.60;99.90
34837;DHT22;21053;50.848;4.652;2024-02-21T00:40:25;10.70;99.90
34837;DHT22;21053;50.848;4.652;2024-02-21T00:42:53;10.70;99.90
34837;DHT22;21053;50.848;4.652;2024-02-21T00:45:20;10.70;99.90
34837;DHT22;21053;50.848;4.652;2024-02-21T00:47:47;10.70;99.90
34837;DHT22;21053;50.848;4.652;2024-02-21T00:50:16;10.70;99.90
34837;DHT22;21053;50.848;4.652;2024-02-21T00:52:45;10.60;99.90
34837;DHT22;21053;50.848;4.652;2024-02-21T00:55:14;10.60;99.90
34837;DHT22;21053;50.848;4.652;2024-02-21T00:57:41;10.60;99.90
34837;DHT22;21053;50.848;4.652;2024-02-21T01:00:08;10.60;99.90
34837;DHT22;21053;50.848;4.652;2024-02-21T01:02:37;10.70;99.90
34837;DHT22;21053;50.848;4.652;2024-02-21T01:05:02;10.70;99.90
34837;DHT22;21053;50.848;4.652;2024-02-21T01:07:31;10.60;99.90
34837;DHT22;21053;50.848;4.652;2024-02-21T01:10:00;10.60;99.90
34837;DHT22;21053;50.848;4.652;2024-02-21T01:12:27;10.60;99.90
34837;DHT22;21053;50.848;4.652;2024-02-21T01:14:55;10.60;99.90
34837;DHT22;21053;50.848;4.652;2024-02-21T01:17:24;10.60;99.90
34837;DHT22;21053;50.848;4.652;2024-02-21T01:19:53;10.70;99.90
34837;DHT22;21053;50.848;4.652;2024-02-21T01:22:22;10.70;99.90
34837;DHT22;21053;50.848;4.652;2024-02-21T01:24:48;10.60;99.90
34837;DHT22;21053;50.848;4.652;2024-02-21T01:27:17;10.60;99.90
34837;DHT22;21053;50.848;4.652;2024-02-21T01:29:46;10.50;99.90
34837;DHT22;21053;50.848;4.652;2024-02-21T01:32:16;10.50;99.90
34837;DHT22;21053;50.848;4.652;2024-02-21T01:34:42;10.60;99.90
34837;DHT22;21053;50.848;4.652;2024-02-21T01:37:07;10.60;99.90
34837;DHT22;21053;50.848;4.652;2024-02-21T01:39:37;10.60;99.90
34837;DHT22;21053;50.848;4.652;2024-02-21T01:42:06;10.60;99.90
34837;DHT22;21053;50.848;4.652;2024-02-21T01:44:32;10.50;99.90
34837;DHT22;21053;50.848;4.652;2024-02-21T01:46:58;10.60;99.90
34837;DHT22;21053;50.848;4.652;2024-02-21T01:49:24;10.60;99.90
34837;DHT22;21053;50.848;4.652;2024-02-21T01:51:53;10.50;99.90
34837;DHT22;21053;50.848;4.652;2024-02-21T01:54:22;10.50;99.90
34837;DHT22;21053;50.848;4.652;2024-02-21T01:56:49;10.60;99.90
34837;DHT22;21053;50.848;4.652;2024-02-21T01:59:19;10.60;99.90
34837;DHT22;21053;50.848;4.652;2024-02-21T02:01:48;10.60;99.90
34837;DHT22;21053;50.848;4.652;2024-02-21T02:04:16;10.60;99.90
34837;DHT22;21053;50.848;4.652;2024-02-21T02:06:44;10.60;99.90
34837;DHT22;21053;50.848;4.652;2024-02-21T02:09:12;10.60;99.90
34837;DHT22;21053;50.848;4.652;2024-02-21T02:11:39;10.60;99.90
34837;DHT22;21053;50.848;4.652;2024-02-21T02:14:06;10.50;99.90
34837;DHT22;21053;50.848;4.652;2024-02-21T02:16:35;10.50;99.90
34837;DHT22;21053;50.848;4.652;2024-02-21T02:19:00;10.50;99.90
34837;DHT22;21053;50.848;4.652;2024-02-21T02:21:35;10.50;99.90
34837;DHT22;21053;50.848;4.652;2024-02-21T02:24:10;10.50;99.90
34837;DHT22;21053;50.848;4.652;2024-02-21T02:26:36;10.50;99.90
34837;DHT22;21053;50.848;4.652;2024-02-21T02:29:02;10.50;99.90
34837;DHT22;21053;50.848;4.652;2024-02-21T02:31:29;10.60;99.90
34837;DHT22;21053;50.848;4.652;2024-02-21T02:33:55;10.50;99.90
34837;DHT22;21053;50.848;4.652;2024-02-21T02:36:23;10.50;99.90
34837;DHT22;21053;50.848;4.652;2024-02-21T02:38:50;10.60;99.90
34837;DHT22;21053;50.848;4.652;2024-02-21T02:41:19;10.60;99.90
34837;DHT22;21053;50.848;4.652;2024-02-21T02:43:44;10.60;99.90
34837;DHT22;21053;50.848;4.652;2024-02-21T02:46:11;10.50;99.90
34837;DHT22;21053;50.848;4.652;2024-02-21T02:48:37;10.60;99.90
34837;DHT22;21053;50.848;4.652;2024-02-21T02:51:05;10.60;99.90
34837;DHT22;21053;50.848;4.652;2024-02-21T02:53:30;10.50;99.90
34837;DHT22;21053;50.848;4.652;2024-02-21T02:55:57;10.50;99.90
34837;DHT22;21053;50.848;4.652;2024-02-21T02:58:24;10.40;99.90
34837;DHT22;21053;50.848;4.652;2024-02-21T03:00:50;10.40;99.90
34837;DHT22;21053;50.848;4.652;2024-02-21T03:03:17;10.40;99.90
34837;DHT22;21053;50.848;4.652;2024-02-21T03:05:46;10.50;99.90
34837;DHT22;21053;50.848;4.652;2024-02-21T03:08:17;10.60;99.90
34837;DHT22;21053;50.848;4.652;2024-02-21T03:10:43;10.50;99.90
34837;DHT22;21053;50.848;4.652;2024-02-21T03:13:09;10.50;99.90
34837;DHT22;21053;50.848;4.652;2024-02-21T03:15:34;10.40;99.90
34837;DHT22;21053;50.848;4.652;2024-02-21T03:18:03;10.40;99.90
34837;DHT22;21053;50.848;4.652;2024-02-21T03:20:32;10.50;99.90
34837;DHT22;21053;50.848;4.652;2024-02-21T03:22:59;10.50;99.90
34837;DHT22;21053;50.848;4.652;2024-02-21T03:25:26;10.40;99.90
34837;DHT22;21053;50.848;4.652;2024-02-21T03:27:52;10.40;99.90
34837;DHT22;21053;50.848;4.652;2024-02-21T03:30:17;10.50;99.90
34837;DHT22;21053;50.848;4.652;2024-02-21T03:32:53;10.50;99.90
34837;DHT22;21053;50.848;4.652;2024-02-21T03:35:19;10.40;99.90
34837;DHT22;21053;50.848;4.652;2024-02-21T03:37:48;10.40;99.90
34837;DHT22;21053;50.848;4.652;2024-02-21T03:40:17;10.40;99.90
34837;DHT22;21053;50.848;4.652;2024-02-21T03:42:44;10.50;99.90
34837;DHT22;21053;50.848;4.652;2024-02-21T03:45:12;10.50;99.90
34837;DHT22;21053;50.848;4.652;2024-02-21T03:47:39;10.50;99.90
34837;DHT22;21053;50.848;4.652;2024-02-21T03:50:10;10.60;99.90
34837;DHT22;21053;50.848;4.652;2024-02-21T03:52:37;10.50;99.90
34837;DHT22;21053;50.848;4.652;2024-02-21T03:55:06;10.50;99.90
34837;DHT22;21053;50.848;4.652;2024-02-21T03:57:36;10.50;99.90
34837;DHT22;21053;50.848;4.652;2024-02-21T04:00:12;10.60;99.90
34837;DHT22;21053;50.848;4.652;2024-02-21T04:02:41;10.50;99.90
34837;DHT22;21053;50.848;4.652;2024-02-21T04:05:09;10.50;99.90
34837;DHT22;21053;50.848;4.652;2024-02-21T04:07:39;10.50;99.90
34837;DHT22;21053;50.848;4.652;2024-02-21T04:10:08;10.50;99.90
34837;DHT22;21053;50.848;4.652;2024-02-21T04:12:37;10.50;99.90
34837;DHT22;21053;50.848;4.652;2024-02-21T04:15:05;10.50;99.90
34837;DHT22;21053;50.848;4.652;2024-02-21T04:17:34;10.50;99.90
34837;DHT22;21053;50.848;4.652;2024-02-21T04:20:06;10.40;99.90
34837;DHT22;21053;50.848;4.652;2024-02-21T04:22:37;10.40;99.90
34837;DHT22;21053;50.848;4.652;2024-02-21T04:25:06;10.40;99.90
34837;DHT22;21053;50.848;4.652;2024-02-21T04:27:33;10.40;99.90
34837;DHT22;21053;50.848;4.652;2024-02-21T04:30:01;10.50;99.90
34837;DHT22;21053;50.848;4.652;2024-02-21T04:32:28;10.50;99.90
34837;DHT22;21053;50.848;4.652;2024-02-21T04:35:03;10.50;99.90
34837;DHT22;21053;50.848;4.652;2024-02-21T04:37:35;10.50;99.90
34837;DHT22;21053;50.848;4.652;2024-02-21T04:40:04;10.30;99.90
34837;DHT22;21053;50.848;4.652;2024-02-21T04:42:33;10.30;99.90
34837;DHT22;21053;50.848;4.652;2024-02-21T04:45:02;10.40;99.90
34837;DHT22;21053;50.848;4.652;2024-02-21T04:47:31;10.40;99.90
34837;DHT22;21053;50.848;4.652;2024-02-21T04:49:58;10.40;99.90
34837;DHT22;21053;50.848;4.652;2024-02-21T04:52:24;10.50;99.90
34837;DHT22;21053;50.848;4.652;2024-02-21T04:54:53;10.50;99.90
34837;DHT22;21053;50.848;4.652;2024-02-21T04:57:21;10.60;99.90
34837;DHT22;21053;50.848;4.652;2024-02-21T04:59:49;10.40;99.90
34837;DHT22;21053;50.848;4.652;2024-02-21T05:02:15;10.30;99.90
34837;DHT22;21053;50.848;4.652;2024-02-21T05:04:42;10.40;99.90
34837;DHT22;21053;50.848;4.652;2024-02-21T05:07:11;10.40;99.90
34837;DHT22;21053;50.848;4.652;2024-02-21T05:09:39;10.30;99.90
34837;DHT22;21053;50.848;4.652;2024-02-21T05:12:05;10.30;99.90
34837;DHT22;21053;50.848;4.652;2024-02-21T05:14:34;10.40;99.90
34837;DHT22;21053;50.848;4.652;2024-02-21T05:17:03;10.40;99.90
34837;DHT22;21053;50.848;4.652;2024-02-21T05:19:31;10.50;99.90
34837;DHT22;21053;50.848;4.652;2024-02-21T05:22:00;10.50;99.90
34837;DHT22;21053;50.848;4.652;2024-02-21T05:24:28;10.40;99.90
34837;DHT22;21053;50.848;4.652;2024-02-21T05:26:58;10.40;99.90
34837;DHT22;21053;50.848;4.652;2024-02-21T05:29:25;10.50;99.90
34837;DHT22;21053;50.848;4.652;2024-02-21T05:34:22;10.40;99.90
34837;DHT22;21053;50.848;4.652;2024-02-21T05:36:51;10.40;99.90
34837;DHT22;21053;50.848;4.652;2024-02-21T05:39:18;10.40;99.90
34837;DHT22;21053;50.848;4.652;2024-02-21T05:41:46;10.40;99.90
34837;DHT22;21053;50.848;4.652;2024-02-21T05:44:15;10.50;99.90
34837;DHT22;21053;50.848;4.652;2024-02-21T05:46:44;10.50;99.90
34837;DHT22;21053;50.848;4.652;2024-02-21T05:49:11;10.40;99.90
34837;DHT22;21053;50.848;4.652;2024-02-21T05:51:40;10.50;99.90
34837;DHT22;21053;50.848;4.652;2024-02-21T05:54:09;10.40;99.90
34837;DHT22;21053;50.848;4.652;2024-02-21T05:56:37;10.40;99.90
34837;DHT22;21053;50.848;4.652;2024-02-21T05:59:06;10.30;99.90
34837;DHT22;21053;50.848;4.652;2024-02-21T06:01:32;10.20;99.90
34837;DHT22;21053;50.848;4.652;2024-02-21T06:04:00;10.20;99.90
34837;DHT22;21053;50.848;4.652;2024-02-21T06:06:30;10.30;99.90
34837;DHT22;21053;50.848;4.652;2024-02-21T06:08:58;10.20;99.90
34837;DHT22;21053;50.848;4.652;2024-02-21T06:11:25;10.30;99.90
34837;DHT22;21053;50.848;4.652;2024-02-21T06:13:54;10.30;99.90
34837;DHT22;21053;50.848;4.652;2024-02-21T06:16:35;10.40;99.90
34837;DHT22;21053;50.848;4.652;2024-02-21T06:19:02;10.40;99.90
34837;DHT22;21053;50.848;4.652;2024-02-21T06:21:31;10.40;99.90
34837;DHT22;21053;50.848;4.652;2024-02-21T06:24:03;10.20;99.90
34837;DHT22;21053;50.848;4.652;2024-02-21T06:26:30;10.20;99.90
34837;DHT22;21053;50.848;4.652;2024-02-21T06:28:59;10.20;99.90
34837;DHT22;21053;50.848;4.652;2024-02-21T06:31:28;10.30;99.90
34837;DHT22;21053;50.848;4.652;2024-02-21T06:33:57;10.40;99.90
34837;DHT22;21053;50.848;4.652;2024-02-21T06:36:24;10.40;99.90
34837;DHT22;21053;50.848;4.652;2024-02-21T06:38:53;10.40;99.90
34837;DHT22;21053;50.848;4.652;2024-02-21T06:41:21;10.40;99.90
34837;DHT22;21053;50.848;4.652;2024-02-21T06:43:48;10.40;99.90
34837;DHT22;21053;50.848;4.652;2024-02-21T06:46:26;10.40;99.90
34837;DHT22;21053;50.848;4.652;2024-02-21T06:48:57;10.40;99.90
34837;DHT22;21053;50.848;4.652;2024-02-21T06:51:24;10.30;99.90
34837;DHT22;21053;50.848;4.652;2024-02-21T06:53:50;10.40;99.90
34837;DHT22;21053;50.848;4.652;2024-02-21T06:56:25;10.40;99.90
34837;DHT22;21053;50.848;4.652;2024-02-21T06:59:01;10.30;99.90
34837;DHT22;21053;50.848;4.652;2024-02-21T07:01:30;10.30;99.90
34837;DHT22;21053;50.848;4.652;2024-02-21T07:03:59;10.40;99.90
34837;DHT22;21053;50.848;4.652;2024-02-21T07:06:27;10.40;99.90
34837;DHT22;21053;50.848;4.652;2024-02-21T07:08:55;10.20;99.90
34837;DHT22;21053;50.848;4.652;2024-02-21T07:11:24;10.10;99.90
34837;DHT22;21053;50.848;4.652;2024-02-21T07:13:52;10.10;99.90
34837;DHT22;21053;50.848;4.652;2024-02-21T07:16:19;10.30;99.90
34837;DHT22;21053;50.848;4.652;2024-02-21T07:18:47;10.20;99.90
34837;DHT22;21053;50.848;4.652;2024-02-21T07:21:16;10.20;99.90
34837;DHT22;21053;50.848;4.652;2024-02-21T07:23:41;10.20;99.90
34837;DHT22;21053;50.848;4.652;2024-02-21T07:26:13;10.20;99.90
34837;DHT22;21053;50.848;4.652;2024-02-21T07:28:40;10.20;99.90
34837;DHT22;21053;50.848;4.652;2024-02-21T07:31:08;10.10;99.90
34837;DHT22;21053;50.848;4.652;2024-02-21T07:33:37;9.90;99.90
34837;DHT22;21053;50.848;4.652;2024-02-21T07:36:07;10.00;99.90
34837;DHT22;21053;50.848;4.652;2024-02-21T07:38:37;10.10;99.90
34837;DHT22;21053;50.848;4.652;2024-02-21T07:41:08;10.10;99.90
34837;DHT22;21053;50.848;4.652;2024-02-21T07:43:37;10.20;99.90
34837;DHT22;21053;50.848;4.652;2024-02-21T07:46:05;10.10;99.90
34837;DHT22;21053;50.848;4.652;2024-02-21T07:48:34;10.10;99.90
34837;DHT22;21053;50.848;4.652;2024-02-21T07:51:03;10.20;99.90
34837;DHT22;21053;50.848;4.652;2024-02-21T07:53:28;10.10;99.90
34837;DHT22;21053;50.848;4.652;2024-02-21T07:55:56;10.20;99.90
34837;DHT22;21053;50.848;4.652;2024-02-21T07:58:21;10.20;99.90
34837;DHT22;21053;50.848;4.652;2024-02-21T08:00:50;10.20;99.90
34837;DHT22;21053;50.848;4.652;2024-02-21T08:03:17;10.20;99.90
34837;DHT22;21053;50.848;4.652;2024-02-21T08:05:43;10.20;99.90
34837;DHT22;21053;50.848;4.652;2024-02-21T08:08:12;10.20;99.90
34837;DHT22;21053;50.848;4.652;2024-02-21T08:10:44;10.30;99.90
34837;DHT22;21053;50.848;4.652;2024-02-21T08:13:13;10.30;99.90
34837;DHT22;21053;50.848;4.652;2024-02-21T08:15:42;10.40;99.90
34837;DHT22;21053;50.848;4.652;2024-02-21T08:18:10;10.50;99.90
34837;DHT22;21053;50.848;4.652;2024-02-21T08:20:42;10.40;99.90
34837;DHT22;21053;50.848;4.652;2024-02-21T08:23:09;10.40;99.90
34837;DHT22;21053;50.848;4.652;2024-02-21T08:25:38;10.50;99.90
34837;DHT22;21053;50.848;4.652;2024-02-21T08:28:05;10.40;99.90
34837;DHT22;21053;50.848;4.652;2024-02-21T08:30:32;10.50;99.90
34837;DHT22;21053;50.848;4.652;2024-02-21T08:33:01;10.60;99.90
34837;DHT22;21053;50.848;4.652;2024-02-21T08:35:26;10.60;99.90
34837;DHT22;21053;50.848;4.652;2024-02-21T08:37:52;10.70;99.90
34837;DHT22;21053;50.848;4.652;2024-02-21T08:40:20;10.60;99.90
34837;DHT22;21053;50.848;4.652;2024-02-21T08:45:54;10.70;99.90
34837;DHT22;21053;50.848;4.652;2024-02-21T08:48:21;10.70;99.90
34837;DHT22;21053;50.848;4.652;2024-02-21T08:50:50;10.80;99.90
34837;DHT22;21053;50.848;4.652;2024-02-21T08:53:19;10.70;99.90
34837;DHT22;21053;50.848;4.652;2024-02-21T08:55:50;10.60;99.90
34837;DHT22;21053;50.848;4.652;2024-02-21T08:58:17;10.70;99.90
34837;DHT22;21053;50.848;4.652;2024-02-21T09:00:47;10.70;99.90
34837;DHT22;21053;50.848;4.652;2024-02-21T09:03:16;10.70;99.90
34837;DHT22;21053;50.848;4.652;2024-02-21T09:05:46;10.80;99.90
34837;DHT22;21053;50.848;4.652;2024-02-21T09:08:14;10.80;99.90
34837;DHT22;21053;50.848;4.652;2024-02-21T09:10:43;10.90;99.90
34837;DHT22;21053;50.848;4.652;2024-02-21T09:13:08;10.90;99.90
34837;DHT22;21053;50.848;4.652;2024-02-21T09:15:37;11.00;99.90
34837;DHT22;21053;50.848;4.652;2024-02-21T09:18:04;10.90;99.90
34837;DHT22;21053;50.848;4.652;2024-02-21T09:20:32;10.80;99.90
34837;DHT22;21053;50.848;4.652;2024-02-21T09:23:01;10.90;99.90
34837;DHT22;21053;50.848;4.652;2024-02-21T09:25:26;11.00;99.90
34837;DHT22;21053;50.848;4.652;2024-02-21T09:27:54;11.00;99.90
34837;DHT22;21053;50.848;4.652;2024-02-21T09:30:22;11.10;99.90
34837;DHT22;21053;50.848;4.652;2024-02-21T09:32:47;11.20;99.90
34837;DHT22;21053;50.848;4.652;2024-02-21T09:35:16;11.20;99.90
34837;DHT22;21053;50.848;4.652;2024-02-21T09:37:45;11.10;99.90
34837;DHT22;21053;50.848;4.652;2024-02-21T09:40:15;11.10;99.90
34837;DHT22;21053;50.848;4.652;2024-02-21T09:42:44;11.20;99.90
34837;DHT22;21053;50.848;4.652;2024-02-21T09:45:15;11.20;99.90
34837;DHT22;21053;50.848;4.652;2024-02-21T09:50:55;11.30;99.90
34837;DHT22;21053;50.848;4.652;2024-02-21T09:53:24;11.50;99.90
34837;DHT22;21053;50.848;4.652;2024-02-21T09:55:52;11.60;99.90
34837;DHT22;21053;50.848;4.652;2024-02-21T09:58:19;11.70;99.90
34837;DHT22;21053;50.848;4.652;2024-02-21T10:00:45;11.80;99.90
34837;DHT22;21053;50.848;4.652;2024-02-21T10:03:11;11.90;99.90
34837;DHT22;21053;50.848;4.652;2024-02-21T10:05:38;11.90;99.90
34837;DHT22;21053;50.848;4.652;2024-02-21T10:08:05;12.00;99.90
34837;DHT22;21053;50.848;4.652;2024-02-21T10:10:44;12.00;99.90
34837;DHT22;21053;50.848;4.652;2024-02-21T10:13:26;12.10;99.90
34837;DHT22;21053;50.848;4.652;2024-02-21T10:16:08;12.10;99.90
34837;DHT22;21053;50.848;4.652;2024-02-21T10:18:36;12.10;99.90
34837;DHT22;21053;50.848;4.652;2024-02-21T10:21:06;12.10;99.90
34837;DHT22;21053;50.848;4.652;2024-02-21T10:24:04;12.20;99.90
34837;DHT22;21053;50.848;4.652;2024-02-21T10:26:30;12.20;99.90
34837;DHT22;21053;50.848;4.652;2024-02-21T10:29:01;12.30;99.90
34837;DHT22;21053;50.848;4.652;2024-02-21T10:31:30;12.40;99.90
34837;DHT22;21053;50.848;4.652;2024-02-21T10:34:03;12.40;99.90
34837;DHT22;21053;50.848;4.652;2024-02-21T10:36:31;12.40;99.90
34837;DHT22;21053;50.848;4.652;2024-02-21T10:38:57;12.40;99.90
34837;DHT22;21053;50.848;4.652;2024-02-21T10:41:24;12.30;99.90
34837;DHT22;21053;50.848;4.652;2024-02-21T10:43:51;12.30;99.90
34837;DHT22;21053;50.848;4.652;2024-02-21T10:46:23;12.40;99.90
34837;DHT22;21053;50.848;4.652;2024-02-21T10:49:07;12.40;99.90
34837;DHT22;21053;50.848;4.652;2024-02-21T10:51:37;12.30;99.90
34837;DHT22;21053;50.848;4.652;2024-02-21T10:54:53;12.40;99.90
34837;DHT22;21053;50.848;4.652;2024-02-21T10:57:21;12.40;99.90
34837;DHT22;21053;50.848;4.652;2024-02-21T10:59:48;12.40;99.90
34837;DHT22;21053;50.848;4.652;2024-02-21T11:02:16;12.40;99.90
34837;DHT22;21053;50.848;4.652;2024-02-21T11:04:44;12.30;99.90
34837;DHT22;21053;50.848;4.652;2024-02-21T11:07:10;12.40;99.90
34837;DHT22;21053;50.848;4.652;2024-02-21T11:09:36;12.40;99.90
34837;DHT22;21053;50.848;4.652;2024-02-21T11:12:06;12.40;99.90
34837;DHT22;21053;50.848;4.652;2024-02-21T11:14:38;12.40;99.90
34837;DHT22;21053;50.848;4.652;2024-02-21T11:17:20;12.40;99.90
34837;DHT22;21053;50.848;4.652;2024-02-21T11:19:53;12.50;99.90
34837;DHT22;21053;50.848;4.652;2024-02-21T11:22:19;12.60;99.90
34837;DHT22;21053;50.848;4.652;2024-02-21T11:24:48;12.60;99.90
34837;DHT22;21053;50.848;4.652;2024-02-21T11:27:16;12.80;99.90
34837;DHT22;21053;50.848;4.652;2024-02-21T11:29:56;12.90;99.90
34837;DHT22;21053;50.848;4.652;2024-02-21T11:32:23;12.90;99.90
34837;DHT22;21053;50.848;4.652;2024-02-21T11:35:00;12.90;99.90
34837;DHT22;21053;50.848;4.652;2024-02-21T11:37:35;12.90;99.90
34837;DHT22;21053;50.848;4.652;2024-02-21T11:40:10;12.70;99.90
34837;DHT22;21053;50.848;4.652;2024-02-21T11:42:39;12.60;99.90
34837;DHT22;21053;50.848;4.652;2024-02-21T11:45:07;12.50;99.90
34837;DHT22;21053;50.848;4.652;2024-02-21T11:50:04;12.50;99.90
34837;DHT22;21053;50.848;4.652;2024-02-21T11:54:14;12.40;99.90
34837;DHT22;21053;50.848;4.652;2024-02-21T11:56:43;12.50;99.90
34837;DHT22;21053;50.848;4.652;2024-02-21T11:59:09;12.50;99.90
34837;DHT22;21053;50.848;4.652;2024-02-21T12:01:35;12.50;99.90
34837;DHT22;21053;50.848;4.652;2024-02-21T12:04:04;12.60;99.90
34837;DHT22;21053;50.848;4.652;2024-02-21T12:06:32;12.60;99.90
34837;DHT22;21053;50.848;4.652;2024-02-21T12:08:58;12.60;99.90
34837;DHT22;21053;50.848;4.652;2024-02-21T12:11:24;12.60;99.90
34837;DHT22;21053;50.848;4.652;2024-02-21T12:14:05;12.60;99.90
34837;DHT22;21053;50.848;4.652;2024-02-21T12:16:33;12.60;99.90
34837;DHT22;21053;50.848;4.652;2024-02-21T12:19:00;12.60;99.90
34837;DHT22;21053;50.848;4.652;2024-02-21T12:21:34;12.40;99.90
34837;DHT22;21053;50.848;4.652;2024-02-21T12:24:22;12.60;99.90
34837;DHT22;21053;50.848;4.652;2024-02-21T12:26:52;12.60;99.90
34837;DHT22;21053;50.848;4.652;2024-02-21T12:29:21;12.50;99.90
34837;DHT22;21053;50.848;4.652;2024-02-21T12:31:47;12.60;99.90
34837;DHT22;21053;50.848;4.652;2024-02-21T12:34:17;12.60;99.90
34837;DHT22;21053;50.848;4.652;2024-02-21T12:36:46;12.50;99.90
34837;DHT22;21053;50.848;4.652;2024-02-21T12:39:15;12.50;99.90
34837;DHT22;21053;50.848;4.652;2024-02-21T12:41:44;12.50;99.90
34837;DHT22;21053;50.848;4.652;2024-02-21T12:44:10;12.50;99.90
34837;DHT22;21053;50.848;4.652;2024-02-21T12:46:37;12.40;99.90
34837;DHT22;21053;50.848;4.652;2024-02-21T12:49:04;12.50;99.90
34837;DHT22;21053;50.848;4.652;2024-02-21T12:51:31;12.50;99.90
34837;DHT22;21053;50.848;4.652;2024-02-21T12:53:59;12.60;99.90
34837;DHT22;21053;50.848;4.652;2024-02-21T12:56:27;12.50;99.90
34837;DHT22;21053;50.848;4.652;2024-02-21T12:58:53;12.50;99.90
34837;DHT22;21053;50.848;4.652;2024-02-21T13:01:22;12.50;99.90
34837;DHT22;21053;50.848;4.652;2024-02-21T13:03:49;12.40;99.90
34837;DHT22;21053;50.848;4.652;2024-02-21T13:06:16;12.50;99.90
34837;DHT22;21053;50.848;4.652;2024-02-21T13:08:43;12.50;99.90
34837;DHT22;21053;50.848;4.652;2024-02-21T13:12:16;12.50;99.90
34837;DHT22;21053;50.848;4.652;2024-02-21T13:14:47;12.60;99.90
34837;DHT22;21053;50.848;4.652;2024-02-21T13:17:13;12.60;99.90
34837;DHT22;21053;50.848;4.652;2024-02-21T13:19:45;12.80;99.90
34837;DHT22;21053;50.848;4.652;2024-02-21T13:22:11;12.80;99.90
34837;DHT22;21053;50.848;4.652;2024-02-21T13:24:38;12.70;99.90
34837;DHT22;21053;50.848;4.652;2024-02-21T13:27:05;12.70;99.90
34837;DHT22;21053;50.848;4.652;2024-02-21T13:29:32;12.70;99.90
34837;DHT22;21053;50.848;4.652;2024-02-21T13:31:59;12.70;99.90
34837;DHT22;21053;50.848;4.652;2024-02-21T13:34:27;12.70;99.90
34837;DHT22;21053;50.848;4.652;2024-02-21T13:36:53;12.60;99.90
34837;DHT22;21053;50.848;4.652;2024-02-21T13:39:21;12.60;99.90
34837;DHT22;21053;50.848;4.652;2024-02-21T13:41:50;12.50;99.90
34837;DHT22;21053;50.848;4.652;2024-02-21T13:44:19;12.40;99.90
34837;DHT22;21053;50.848;4.652;2024-02-21T13:46:49;12.40;99.90
34837;DHT22;21053;50.848;4.652;2024-02-21T13:49:16;12.30;99.90
34837;DHT22;21053;50.848;4.652;2024-02-21T13:51:54;12.20;99.90
34837;DHT22;21053;50.848;4.652;2024-02-21T13:54:43;12.20;99.90
34837;DHT22;21053;50.848;4.652;2024-02-21T13:57:16;12.20;99.90
34837;DHT22;21053;50.848;4.652;2024-02-21T13:59:56;12.00;99.90
34837;DHT22;21053;50.848;4.652;2024-02-21T14:02:30;12.00;99.90
34837;DHT22;21053;50.848;4.652;2024-02-21T14:04:59;11.90;99.90
34837;DHT22;21053;50.848;4.652;2024-02-21T14:07:28;12.00;99.90
34837;DHT22;21053;50.848;4.652;2024-02-21T14:10:07;12.00;99.90
34837;DHT22;21053;50.848;4.652;2024-02-21T14:12:40;12.00;99.90
34837;DHT22;21053;50.848;4.652;2024-02-21T14:15:09;11.90;99.90
34837;DHT22;21053;50.848;4.652;2024-02-21T14:17:38;11.90;99.90
34837;DHT22;21053;50.848;4.652;2024-02-21T14:20:34;11.90;99.90
34837;DHT22;21053;50.848;4.652;2024-02-21T14:23:05;11.80;99.90
34837;DHT22;21053;50.848;4.652;2024-02-21T14:25:53;11.80;99.90
34837;DHT22;21053;50.848;4.652;2024-02-21T14:28:49;11.80;99.90
34837;DHT22;21053;50.848;4.652;2024-02-21T14:31:16;11.70;99.90
34837;DHT22;21053;50.848;4.652;2024-02-21T14:33:42;11.70;99.90
34837;DHT22;21053;50.848;4.652;2024-02-21T14:36:09;11.60;99.90
34837;DHT22;21053;50.848;4.652;2024-02-21T14:38:37;11.60;99.90
34837;DHT22;21053;50.848;4.652;2024-02-21T14:41:03;11.60;99.90
34837;DHT22;21053;50.848;4.652;2024-02-21T14:43:29;11.50;99.90
34837;DHT22;21053;50.848;4.652;2024-02-21T14:45:55;11.60;99.90
34837;DHT22;21053;50.848;4.652;2024-02-21T14:48:27;11.60;99.90
34837;DHT22;21053;50.848;4.652;2024-02-21T14:50:54;11.60;99.90
34837;DHT22;21053;50.848;4.652;2024-02-21T14:53:23;11.40;99.90
34837;DHT22;21053;50.848;4.652;2024-02-21T14:55:51;11.30;99.90
34837;DHT22;21053;50.848;4.652;2024-02-21T14:58:18;11.30;99.90
34837;DHT22;21053;50.848;4.652;2024-02-21T15:00:47;11.30;99.90
34837;DHT22;21053;50.848;4.652;2024-02-21T15:03:18;11.30;99.90
34837;DHT22;21053;50.848;4.652;2024-02-21T15:05:50;11.40;99.90
34837;DHT22;21053;50.848;4.652;2024-02-21T15:08:18;11.40;99.90
34837;DHT22;21053;50.848;4.652;2024-02-21T15:10:45;11.30;99.90
34837;DHT22;21053;50.848;4.652;2024-02-21T15:13:13;11.30;99.90
34837;DHT22;21053;50.848;4.652;2024-02-21T15:15:40;11.10;99.90
34837;DHT22;21053;50.848;4.652;2024-02-21T15:18:18;11.20;99.90
34837;DHT22;21053;50.848;4.652;2024-02-21T15:20:46;11.20;99.90
34837;DHT22;21053;50.848;4.652;2024-02-21T15:23:14;11.20;99.90
34837;DHT22;21053;50.848;4.652;2024-02-21T15:25:44;11.20;99.90
34837;DHT22;21053;50.848;4.652;2024-02-21T15:28:12;11.10;99.90
34837;DHT22;21053;50.848;4.652;2024-02-21T15:30:41;11.10;99.90
34837;DHT22;21053;50.848;4.652;2024-02-21T15:33:10;11.00;99.90
34837;DHT22;21053;50.848;4.652;2024-02-21T15:35:36;11.10;99.90
34837;DHT22;21053;50.848;4.652;2024-02-21T15:38:02;11.00;99.90
34837;DHT22;21053;50.848;4.652;2024-02-21T15:40:28;11.00;99.90
34837;DHT22;21053;50.848;4.652;2024-02-21T15:42:56;10.90;99.90
34837;DHT22;21053;50.848;4.652;2024-02-21T15:45:25;10.90;99.90
34837;DHT22;21053;50.848;4.652;2024-02-21T15:47:54;10.90;99.90
34837;DHT22;21053;50.848;4.652;2024-02-21T15:50:21;10.80;99.90
34837;DHT22;21053;50.848;4.652;2024-02-21T15:52:46;10.90;99.90
34837;DHT22;21053;50.848;4.652;2024-02-21T15:55:13;10.70;99.90
34837;DHT22;21053;50.848;4.652;2024-02-21T15:57:40;10.70;99.90